createdAt,value
2017-07-27T00:00:08.443Z,97321.16
2017-07-27T00:02:35.880Z,97314.64
2017-07-27T00:05:03.309Z,97324.43
2017-07-27T00:07:30.790Z,97328.25
2017-07-27T00:09:58.235Z,97326.73
2017-07-27T00:12:25.690Z,97325.86
2017-07-27T00:14:53.151Z,97326.66
2017-07-27T00:17:20.580Z,97324.23
2017-07-27T00:19:48.020Z,97327.78
2017-07-27T00:22:15.601Z,97328.97
2017-07-27T00:24:43.062Z,97328.53
2017-07-27T00:27:10.458Z,97325.47
2017-07-27T00:29:37.928Z,97317.42
2017-07-27T00:32:05.330Z,97319.10
2017-07-27T00:34:32.738Z,97313.25
2017-07-27T00:37:00.169Z,97314.64
2017-07-27T00:39:27.680Z,97306.36
2017-07-27T00:41:55.117Z,97296.89
2017-07-27T00:44:22.524Z,97305.41
2017-07-27T00:46:49.932Z,97297.27
2017-07-27T00:49:17.372Z,97302.98
2017-07-27T00:51:44.779Z,97305.77
2017-07-27T00:54:12.240Z,97305.64
2017-07-27T00:56:39.663Z,97304.67
2017-07-27T00:59:07.079Z,97303.19
2017-07-27T01:01:34.550Z,97306.40
2017-07-27T01:04:01.960Z,97300.33
2017-07-27T01:06:29.366Z,97304.31
2017-07-27T01:08:56.982Z,97303.64
2017-07-27T01:11:24.690Z,97292.30
2017-07-27T01:13:52.110Z,97287.84
2017-07-27T01:16:19.562Z,97289.70
2017-07-27T01:18:47.117Z,97285.13
2017-07-27T01:21:14.523Z,97281.52
2017-07-27T01:23:41.976Z,97285.84
2017-07-27T01:26:09.382Z,97284.48
2017-07-27T01:28:36.831Z,97279.53
2017-07-27T01:31:04.237Z,97274.34
2017-07-27T01:33:31.698Z,97276.72
2017-07-27T01:35:59.262Z,97268.76
2017-07-27T01:38:26.839Z,97271.84
2017-07-27T01:40:54.343Z,97272.40
2017-07-27T01:43:21.797Z,97269.92
2017-07-27T01:45:49.240Z,97276.02
2017-07-27T01:48:16.945Z,97278.11
2017-07-27T01:50:44.367Z,97271.73
2017-07-27T01:53:11.779Z,97265.91
2017-07-27T01:55:39.224Z,97268.86
2017-07-27T01:58:06.666Z,97262.61
2017-07-27T02:00:34.096Z,97255.41
2017-07-27T02:03:01.539Z,97255.16
2017-07-27T02:05:28.947Z,97255.69
2017-07-27T02:07:56.376Z,97253.21
2017-07-27T02:10:23.795Z,97257.47
2017-07-27T02:12:51.216Z,97249.37
2017-07-27T02:15:18.991Z,97253.14
2017-07-27T02:17:46.487Z,97252.05
2017-07-27T02:20:13.924Z,97246.07
2017-07-27T02:22:41.337Z,97250.77
2017-07-27T02:25:08.773Z,97247.43
2017-07-27T02:27:36.182Z,97249.34
2017-07-27T02:30:03.587Z,97249.58
2017-07-27T02:32:31.075Z,97247.20
2017-07-27T02:34:58.611Z,97250.59
2017-07-27T02:37:26.067Z,97247.49
2017-07-27T02:39:53.471Z,97241.94
2017-07-27T02:42:21.096Z,97242.34
2017-07-27T02:44:48.815Z,97245.67
2017-07-27T02:47:16.289Z,97251.03
2017-07-27T02:49:43.730Z,97245.53
2017-07-27T02:52:11.133Z,97246.20
2017-07-27T02:54:38.612Z,97243.98
2017-07-27T02:57:06.081Z,97247.63
2017-07-27T02:59:33.479Z,97244.84
2017-07-27T03:02:00.882Z,97244.78
2017-07-27T03:04:28.325Z,97240.95
2017-07-27T03:06:55.728Z,97240.25
2017-07-27T03:09:23.208Z,97247.33
2017-07-27T03:11:50.665Z,97240.67
2017-07-27T03:14:18.111Z,97238.76
2017-07-27T03:16:45.570Z,97239.12
2017-07-27T03:19:13.041Z,97246.23
2017-07-27T03:21:40.461Z,97244.02
2017-07-27T03:24:07.860Z,97248.48
2017-07-27T03:26:35.290Z,97245.47
2017-07-27T03:29:02.748Z,97247.62
2017-07-27T03:31:30.345Z,97248.61
2017-07-27T03:33:57.787Z,97249.14
2017-07-27T03:36:25.219Z,97252.08
2017-07-27T03:38:52.625Z,97254.03
2017-07-27T03:41:20.053Z,97257.02
2017-07-27T03:43:47.459Z,97256.45
2017-07-27T03:46:14.931Z,97254.37
2017-07-27T03:48:42.364Z,97252.05
2017-07-27T03:51:09.767Z,97254.93
2017-07-27T03:53:37.212Z,97252.42
2017-07-27T03:56:04.615Z,97253.28
2017-07-27T03:58:32.109Z,97249.51
2017-07-27T04:01:00.219Z,97254.50
2017-07-27T04:03:27.626Z,97257.08
2017-07-27T04:05:55.031Z,97257.70
2017-07-27T04:08:22.457Z,97256.05
2017-07-27T04:10:49.920Z,97254.63
2017-07-27T04:13:18.010Z,97254.50
2017-07-27T04:15:45.419Z,97255.89
2017-07-27T04:18:12.876Z,97254.53
2017-07-27T04:20:40.284Z,97256.13
2017-07-27T04:23:07.768Z,97255.09
2017-07-27T04:25:35.179Z,97257.74
2017-07-27T04:28:02.575Z,97254.40
2017-07-27T04:30:29.994Z,97252.78
2017-07-27T04:32:57.409Z,97258.00
2017-07-27T04:35:24.912Z,97260.58
2017-07-27T04:37:52.333Z,97250.23
2017-07-27T04:40:19.769Z,97255.06
2017-07-27T04:42:47.199Z,97256.02
2017-07-27T04:45:14.591Z,97247.25
2017-07-27T04:47:42.024Z,97246.73
2017-07-27T04:50:09.446Z,97247.78
2017-07-27T04:52:36.896Z,97246.12
2017-07-27T04:55:04.295Z,97238.73
2017-07-27T04:57:43.583Z,97232.30
2017-07-27T05:00:11.044Z,97235.64
2017-07-27T05:02:38.454Z,97239.65
2017-07-27T05:05:05.886Z,97235.31
2017-07-27T05:07:33.317Z,97235.84
2017-07-27T05:10:00.802Z,97229.41
2017-07-27T05:12:28.472Z,97233.48
2017-07-27T05:14:55.911Z,97235.00
2017-07-27T05:17:23.348Z,97233.46
2017-07-27T05:19:50.792Z,97229.23
2017-07-27T05:22:18.226Z,97237.13
2017-07-27T05:24:45.703Z,97238.90
2017-07-27T05:27:13.104Z,97237.44
2017-07-27T05:29:40.570Z,97244.74
2017-07-27T05:32:07.979Z,97243.50
2017-07-27T05:34:36.130Z,97238.32
2017-07-27T05:37:03.610Z,97234.81
2017-07-27T05:39:31.100Z,97232.36
2017-07-27T05:41:58.547Z,97236.48
2017-07-27T05:44:25.963Z,97225.25
2017-07-27T05:46:53.384Z,97229.16
2017-07-27T05:49:20.800Z,97231.22
2017-07-27T05:51:48.230Z,97231.60
2017-07-27T05:54:15.759Z,97228.78
2017-07-27T05:56:43.483Z,97236.00
2017-07-27T05:59:10.916Z,97235.38
2017-07-27T06:01:39.155Z,97240.39
2017-07-27T06:04:06.576Z,97237.03
2017-07-27T06:06:33.999Z,97242.73
2017-07-27T06:09:01.416Z,97240.06
2017-07-27T06:11:28.842Z,97248.48
2017-07-27T06:13:56.248Z,97249.66
2017-07-27T06:16:23.793Z,97250.86
2017-07-27T06:18:51.283Z,97260.09
2017-07-27T06:21:18.910Z,97261.83
2017-07-27T06:23:46.322Z,97256.87
2017-07-27T06:26:14.348Z,97255.53
2017-07-27T06:28:42.539Z,97256.02
2017-07-27T06:31:09.950Z,97252.77
2017-07-27T06:33:37.975Z,97255.88
2017-07-27T06:36:05.413Z,97256.37
2017-07-27T06:38:32.867Z,97251.50
2017-07-27T06:41:00.349Z,97254.84
2017-07-27T06:43:27.792Z,97257.68
2017-07-27T06:45:55.214Z,97253.47
2017-07-27T06:48:22.648Z,97250.75
2017-07-27T06:50:50.106Z,97250.86
2017-07-27T06:53:17.643Z,97253.29
2017-07-27T06:55:45.365Z,97264.81
2017-07-27T06:58:12.891Z,97265.19
2017-07-27T07:00:40.391Z,97262.81
2017-07-27T07:03:07.862Z,97266.95
2017-07-27T07:05:35.296Z,97266.10
2017-07-27T07:13:29.259Z,97269.53
2017-07-27T07:15:56.695Z,97264.50
2017-07-27T07:18:24.817Z,97280.53
2017-07-27T07:20:52.302Z,97271.97
2017-07-27T07:23:19.707Z,97280.01
2017-07-27T07:25:47.228Z,97278.02
2017-07-27T07:28:14.670Z,97278.78
2017-07-27T07:30:42.140Z,97283.26
2017-07-27T07:33:09.577Z,97279.66
2017-07-27T07:35:37.096Z,97282.56
2017-07-27T07:38:04.561Z,97280.67
2017-07-27T07:40:31.985Z,97281.09
2017-07-27T07:42:59.452Z,97281.15
2017-07-27T07:45:26.974Z,97278.75
2017-07-27T07:47:54.406Z,97282.77
2017-07-27T07:50:21.999Z,97285.08
2017-07-27T07:52:49.437Z,97286.69
2017-07-27T07:55:16.847Z,97280.63
2017-07-27T07:57:44.257Z,97279.13
2017-07-27T08:00:11.688Z,97281.51
2017-07-27T08:02:39.113Z,97273.58
2017-07-27T08:05:06.546Z,97270.05
2017-07-27T08:07:33.957Z,97266.03
2017-07-27T08:10:23.883Z,97269.55
2017-07-27T08:12:51.318Z,97267.70
2017-07-27T08:15:18.731Z,97267.27
2017-07-27T08:17:46.201Z,97260.54
2017-07-27T08:20:13.623Z,97268.23
2017-07-27T08:22:41.071Z,97255.78
2017-07-27T08:25:08.835Z,97264.80
2017-07-27T08:27:36.288Z,97261.85
2017-07-27T08:30:03.767Z,97263.34
2017-07-27T08:32:31.347Z,97266.05
2017-07-27T08:34:58.815Z,97272.93
2017-07-27T08:37:26.263Z,97270.77
2017-07-27T08:39:53.682Z,97274.62
2017-07-27T08:42:21.151Z,97269.69
2017-07-27T08:44:48.579Z,97264.02
2017-07-27T08:50:06.310Z,97276.45
2017-07-27T08:52:33.729Z,97278.83
2017-07-27T08:55:01.134Z,97281.45
2017-07-27T08:57:28.572Z,97285.63
2017-07-27T08:59:57.484Z,97295.83
2017-07-27T09:02:24.951Z,97291.23
2017-07-27T09:04:52.350Z,97293.01
2017-07-27T09:07:19.778Z,97282.20
2017-07-27T09:09:47.244Z,97283.44
2017-07-27T09:12:14.684Z,97293.58
2017-07-27T09:14:42.129Z,97302.63
2017-07-27T09:17:09.604Z,97295.78
2017-07-27T09:19:37.161Z,97296.60
2017-07-27T09:22:04.593Z,97283.03
2017-07-27T09:24:32.051Z,97290.52
2017-07-27T09:26:59.472Z,97287.59
2017-07-27T09:29:26.989Z,97285.30
2017-07-27T09:31:54.395Z,97277.96
2017-07-27T09:34:22.121Z,97272.69
2017-07-27T09:36:49.649Z,97275.62
2017-07-27T09:39:17.053Z,97272.89
2017-07-27T09:41:44.500Z,97279.72
2017-07-27T09:44:11.914Z,97274.61
2017-07-27T09:46:39.394Z,97284.09
2017-07-27T09:49:06.820Z,97274.38
2017-07-27T09:51:34.376Z,97281.43
2017-07-27T09:54:02.072Z,97273.53
2017-07-27T09:56:29.532Z,97272.33
2017-07-27T09:58:57.006Z,97271.51
2017-07-27T10:01:24.408Z,97272.74
2017-07-27T10:03:51.925Z,97276.89
2017-07-27T10:06:19.364Z,97273.69
2017-07-27T10:08:46.798Z,97266.08
2017-07-27T10:11:14.271Z,97261.68
2017-07-27T10:13:41.756Z,97259.80
2017-07-27T10:16:09.192Z,97249.63
2017-07-27T10:18:36.613Z,97262.16
2017-07-27T10:21:04.108Z,97255.04
2017-07-27T10:23:31.702Z,97260.98
2017-07-27T10:25:59.247Z,97256.28
2017-07-27T10:28:26.742Z,97242.52
2017-07-27T10:30:54.233Z,97257.34
2017-07-27T10:33:21.687Z,97250.56
2017-07-27T10:35:49.127Z,97247.84
2017-07-27T10:38:16.573Z,97241.98
2017-07-27T10:40:44.047Z,97232.23
2017-07-27T10:43:11.597Z,97227.90
2017-07-27T10:45:39.021Z,97227.48
2017-07-27T10:48:06.512Z,97228.84
2017-07-27T10:50:33.976Z,97215.34
2017-07-27T10:53:01.432Z,97216.17
2017-07-27T10:55:28.910Z,97219.81
2017-07-27T10:57:56.382Z,97220.25
2017-07-27T11:00:23.862Z,97214.14
2017-07-27T11:08:10.091Z,97223.34
2017-07-27T11:10:37.577Z,97232.72
2017-07-27T11:13:05.028Z,97233.41
2017-07-27T11:15:32.506Z,97235.17
2017-07-27T11:17:59.970Z,97237.08
2017-07-27T11:20:27.655Z,97235.35
2017-07-27T11:22:55.848Z,97241.80
2017-07-27T11:25:23.599Z,97238.67
2017-07-27T11:27:51.039Z,97242.84
2017-07-27T11:30:18.859Z,97241.62
2017-07-27T11:32:46.253Z,97249.41
2017-07-27T11:35:13.680Z,97233.34
2017-07-27T11:37:41.236Z,97225.03
2017-07-27T11:40:08.791Z,97227.52
2017-07-27T11:42:36.223Z,97212.13
2017-07-27T11:45:03.629Z,97213.16
2017-07-27T11:47:31.031Z,97204.14
2017-07-27T11:49:58.605Z,97184.09
2017-07-27T11:52:26.093Z,97180.85
2017-07-27T11:54:53.561Z,97184.56
2017-07-27T11:57:21.145Z,97181.14
2017-07-27T11:59:48.571Z,97181.11
2017-07-27T12:02:16.142Z,97188.66
2017-07-27T12:04:43.566Z,97193.09
2017-07-27T12:07:11.043Z,97196.20
2017-07-27T12:09:38.500Z,97190.39
2017-07-27T12:12:05.976Z,97205.98
2017-07-27T12:14:33.373Z,97203.36
2017-07-27T12:17:00.823Z,97197.63
2017-07-27T12:19:28.274Z,97204.34
2017-07-27T12:21:55.733Z,97203.97
2017-07-27T12:24:23.231Z,97214.13
2017-07-27T12:26:50.653Z,97218.91
2017-07-27T12:29:18.127Z,97218.92
2017-07-27T12:31:45.576Z,97216.84
2017-07-27T12:34:13.024Z,97222.30
2017-07-27T12:36:40.464Z,97217.50
2017-07-27T12:39:07.858Z,97210.65
2017-07-27T12:41:35.383Z,97210.42
2017-07-27T12:44:02.859Z,97210.48
2017-07-27T12:46:30.324Z,97210.86
2017-07-27T12:48:57.816Z,97204.34
2017-07-27T12:51:25.235Z,97201.51
2017-07-27T12:53:52.974Z,97194.52
2017-07-27T12:56:20.386Z,97192.70
2017-07-27T12:58:47.812Z,97192.31
2017-07-27T13:01:15.248Z,97201.63
2017-07-27T13:03:42.717Z,97202.71
2017-07-27T13:06:10.122Z,97195.84
2017-07-27T13:08:37.567Z,97195.80
2017-07-27T13:11:05.005Z,97196.23
2017-07-27T13:13:32.451Z,97186.98
2017-07-27T13:15:59.967Z,97181.63
2017-07-27T13:18:27.374Z,97178.95
2017-07-27T13:20:54.818Z,97181.42
2017-07-27T13:23:22.306Z,97184.07
2017-07-27T13:25:49.704Z,97177.48
2017-07-27T13:28:18.042Z,97175.95
2017-07-27T13:30:45.510Z,97177.48
2017-07-27T13:33:12.975Z,97169.62
2017-07-27T13:35:40.435Z,97166.67
2017-07-27T13:38:07.899Z,97164.75
2017-07-27T13:40:35.416Z,97161.11
2017-07-27T13:43:02.845Z,97161.05
2017-07-27T13:45:30.270Z,97160.33
2017-07-27T13:47:58.276Z,97158.27
2017-07-27T13:50:25.861Z,97156.84
2017-07-27T13:52:53.386Z,97162.28
2017-07-27T13:55:20.777Z,97147.49
2017-07-27T13:57:48.283Z,97152.98
2017-07-27T14:00:15.711Z,97143.57
2017-07-27T14:02:43.148Z,97143.91
2017-07-27T14:05:10.624Z,97144.41
2017-07-27T14:07:38.042Z,97138.50
2017-07-27T14:10:05.571Z,97135.63
2017-07-27T14:12:32.969Z,97141.55
2017-07-27T14:15:00.407Z,97147.84
2017-07-27T14:17:27.833Z,97151.55
2017-07-27T14:19:55.256Z,97144.84
2017-07-27T14:22:22.664Z,97137.50
2017-07-27T14:24:50.591Z,97127.52
2017-07-27T14:27:18.039Z,97124.14
2017-07-27T14:29:45.462Z,97117.79
2017-07-27T14:32:12.909Z,97116.39
2017-07-27T14:34:40.369Z,97108.22
2017-07-27T14:37:07.788Z,97112.53
2017-07-27T14:39:35.235Z,97123.94
2017-07-27T14:42:02.657Z,97124.73
2017-07-27T14:44:30.087Z,97122.81
2017-07-27T14:46:57.499Z,97120.25
2017-07-27T14:49:24.956Z,97111.25
2017-07-27T14:51:52.375Z,97104.50
2017-07-27T14:54:19.863Z,97103.25
2017-07-27T14:56:47.309Z,97120.98
2017-07-27T14:59:14.737Z,97126.76
2017-07-27T15:01:42.147Z,97139.66
2017-07-27T15:04:09.702Z,97143.82
2017-07-27T15:06:37.111Z,97136.88
2017-07-27T15:09:04.575Z,97133.31
2017-07-27T15:11:32.019Z,97138.17
2017-07-27T15:13:59.433Z,97141.83
2017-07-27T15:16:26.878Z,97138.62
2017-07-27T15:18:54.451Z,97140.52
2017-07-27T15:21:21.931Z,97135.09
2017-07-27T15:23:50.028Z,97134.61
2017-07-27T15:26:17.484Z,97129.14
2017-07-27T15:28:44.923Z,97137.40
2017-07-27T15:31:12.354Z,97139.03
2017-07-27T15:33:39.818Z,97148.66
2017-07-27T15:36:07.228Z,97148.68
2017-07-27T15:38:34.664Z,97142.37
2017-07-27T15:41:02.099Z,97141.59
2017-07-27T15:43:29.540Z,97140.31
2017-07-27T15:45:56.963Z,97124.75
2017-07-27T15:48:24.376Z,97117.83
2017-07-27T15:50:51.817Z,97119.47
2017-07-27T15:53:19.264Z,97121.61
2017-07-27T15:55:46.744Z,97117.09
2017-07-27T15:58:14.160Z,97120.91
2017-07-27T16:00:41.595Z,97129.86
2017-07-27T16:03:09.044Z,97134.93
2017-07-27T16:05:36.480Z,97128.53
2017-07-27T16:08:03.941Z,97129.12
2017-07-27T16:10:32.038Z,97121.35
2017-07-27T16:12:59.497Z,97123.62
2017-07-27T16:15:26.917Z,97117.47
2017-07-27T16:17:54.372Z,97119.20
2017-07-27T16:20:21.791Z,97128.63
2017-07-27T16:22:49.217Z,97116.41
2017-07-27T16:25:16.679Z,97110.60
2017-07-27T16:27:44.088Z,97108.05
2017-07-27T16:30:11.523Z,97103.77
2017-07-27T16:32:38.954Z,97101.34
2017-07-27T16:35:06.383Z,97106.32
2017-07-27T16:37:33.801Z,97104.30
2017-07-27T16:40:01.283Z,97104.84
2017-07-27T16:42:28.744Z,97094.20
2017-07-27T16:44:56.250Z,97101.06
2017-07-27T16:47:23.745Z,97101.62
2017-07-27T16:49:51.271Z,97098.48
2017-07-27T16:52:18.726Z,97101.31
2017-07-27T16:54:46.169Z,97098.90
2017-07-27T16:57:13.602Z,97088.79
2017-07-27T16:59:41.071Z,97086.84
2017-07-27T17:02:08.520Z,97078.03
2017-07-27T17:04:35.936Z,97080.70
2017-07-27T17:07:03.430Z,97081.16
2017-07-27T17:09:30.915Z,97071.83
2017-07-27T17:11:58.404Z,97069.67
2017-07-27T17:14:26.351Z,97073.75
2017-07-27T17:16:53.826Z,97070.27
2017-07-27T17:19:21.332Z,97062.58
2017-07-27T17:21:48.771Z,97066.84
2017-07-27T17:24:16.912Z,97081.69
2017-07-27T17:26:44.391Z,97086.56
2017-07-27T17:29:11.928Z,97083.63
2017-07-27T17:31:39.376Z,97078.67
2017-07-27T17:34:07.022Z,97078.55
2017-07-27T17:36:34.476Z,97082.81
2017-07-27T17:39:01.925Z,97086.68
2017-07-27T17:41:29.461Z,97079.20
2017-07-27T17:43:56.964Z,97085.79
2017-07-27T17:46:24.400Z,97087.70
2017-07-27T17:48:51.887Z,97077.94
2017-07-27T17:51:19.723Z,97079.40
2017-07-27T17:53:47.174Z,97078.80
2017-07-27T17:56:14.656Z,97080.32
2017-07-27T17:58:42.107Z,97077.20
2017-07-27T18:01:09.598Z,97077.31
2017-07-27T18:03:37.073Z,97075.54
2017-07-27T18:06:04.611Z,97079.25
2017-07-27T18:08:32.164Z,97088.09
2017-07-27T18:10:59.620Z,97078.02
2017-07-27T18:13:27.077Z,97075.22
2017-07-27T18:15:54.573Z,97076.42
2017-07-27T18:18:22.090Z,97078.30
2017-07-27T18:20:49.590Z,97081.47
2017-07-27T18:23:17.216Z,97081.08
2017-07-27T18:25:44.686Z,97079.34
2017-07-27T18:28:12.120Z,97082.56
2017-07-27T18:30:39.675Z,97079.92
2017-07-27T18:33:07.187Z,97079.98
2017-07-27T18:35:34.642Z,97073.42
2017-07-27T18:38:06.294Z,97073.38
2017-07-27T18:40:34.054Z,97078.84
2017-07-27T18:43:01.658Z,97091.98
2017-07-27T18:45:29.658Z,97084.98
2017-07-27T18:47:57.143Z,97074.19
2017-07-27T18:50:24.788Z,97068.36
2017-07-27T18:52:52.254Z,97069.13
2017-07-27T18:55:19.730Z,97073.75
2017-07-27T18:57:47.215Z,97076.61
2017-07-27T19:00:14.725Z,97079.41
2017-07-27T19:02:42.286Z,97075.53
2017-07-27T19:05:09.812Z,97078.67
2017-07-27T19:07:37.346Z,97077.47
2017-07-27T19:10:04.782Z,97069.85
2017-07-27T19:12:32.259Z,97081.46
2017-07-27T19:15:14.289Z,97084.41
2017-07-27T19:17:42.221Z,97092.60
2017-07-27T19:20:09.678Z,97090.42
2017-07-27T19:22:37.132Z,97094.84
2017-07-27T19:25:04.622Z,97102.20
2017-07-27T19:27:32.209Z,97110.05
2017-07-27T19:29:59.817Z,97114.27
2017-07-27T19:32:27.710Z,97117.34
2017-07-27T19:34:55.351Z,97118.41
2017-07-27T19:37:22.843Z,97115.19
2017-07-27T19:39:50.333Z,97114.20
2017-07-27T19:42:17.781Z,97108.83
2017-07-27T19:44:45.217Z,97098.27
2017-07-27T19:47:12.687Z,97097.36
2017-07-27T19:49:40.131Z,97098.09
2017-07-27T19:52:07.576Z,97105.70
2017-07-27T19:54:35.024Z,97101.79
2017-07-27T19:57:02.453Z,97109.38
2017-07-27T19:59:29.910Z,97117.65
2017-07-27T20:01:57.347Z,97116.50
2017-07-27T20:04:24.872Z,97112.94
2017-07-27T20:06:52.326Z,97126.77
2017-07-27T20:09:19.758Z,97128.96
2017-07-27T20:11:47.213Z,97140.47
2017-07-27T20:14:15.140Z,97137.82
2017-07-27T20:16:42.559Z,97135.29
2017-07-27T20:19:10.021Z,97142.15
2017-07-27T20:21:37.483Z,97150.19
2017-07-27T20:24:04.988Z,97148.20
2017-07-27T20:26:32.411Z,97151.51
2017-07-27T20:28:59.852Z,97155.96
2017-07-27T20:31:27.299Z,97157.72
2017-07-27T20:33:54.751Z,97163.10
2017-07-27T20:36:22.294Z,97167.98
2017-07-27T20:38:49.791Z,97171.94
2017-07-27T20:41:17.238Z,97175.13
2017-07-27T20:43:44.685Z,97171.50
2017-07-27T20:46:12.096Z,97168.63
2017-07-27T20:48:39.557Z,97159.16
2017-07-27T20:51:06.988Z,97150.14
2017-07-27T20:53:34.476Z,97146.12
2017-07-27T20:56:02.105Z,97143.89
2017-07-27T20:58:29.572Z,97147.95
2017-07-27T21:00:57.048Z,97151.03
2017-07-27T21:03:24.454Z,97150.04
2017-07-27T21:05:51.903Z,97146.45
2017-07-27T21:08:19.336Z,97159.84
2017-07-27T21:10:46.745Z,97157.64
2017-07-27T21:13:14.319Z,97156.42
2017-07-27T21:15:41.990Z,97155.92
2017-07-27T21:18:09.445Z,97159.80
2017-07-27T21:20:36.928Z,97161.55
2017-07-27T21:23:04.380Z,97159.28
2017-07-27T21:25:31.799Z,97158.14
2017-07-27T21:27:59.289Z,97164.56
2017-07-27T21:30:26.707Z,97162.78
2017-07-27T21:32:54.130Z,97176.23
2017-07-27T21:35:21.581Z,97186.52
2017-07-27T21:37:49.140Z,97171.23
2017-07-27T21:40:16.727Z,97155.41
2017-07-27T21:42:44.128Z,97162.81
2017-07-27T21:45:11.565Z,97174.36
2017-07-27T21:47:39.015Z,97172.30
2017-07-27T21:50:06.428Z,97159.42
2017-07-27T21:52:33.859Z,97152.57
2017-07-27T21:55:01.348Z,97133.95
2017-07-27T21:57:28.864Z,97143.08
2017-07-27T21:59:56.283Z,97156.70
2017-07-27T22:02:23.697Z,97166.02
2017-07-27T22:04:51.139Z,97158.73
2017-07-27T22:07:18.568Z,97163.69
2017-07-27T22:09:46.032Z,97173.80
2017-07-27T22:12:13.440Z,97171.63
2017-07-27T22:14:41.723Z,97183.02
2017-07-27T22:17:09.205Z,97190.92
2017-07-27T22:19:36.607Z,97185.64
2017-07-27T22:22:04.049Z,97181.30
2017-07-27T22:24:31.476Z,97187.87
2017-07-27T22:26:58.886Z,97192.30
2017-07-27T22:29:26.375Z,97178.50
2017-07-27T22:31:53.800Z,97185.47
2017-07-27T22:34:21.267Z,97184.90
2017-07-27T22:36:48.667Z,97197.59
2017-07-27T22:39:16.108Z,97169.95
2017-07-27T22:41:43.530Z,97174.70
2017-07-27T22:44:10.931Z,97159.05
2017-07-27T22:46:38.511Z,97168.74
2017-07-27T22:49:05.929Z,97182.47
2017-07-27T22:51:33.334Z,97184.47
2017-07-27T22:54:00.771Z,97200.39
2017-07-27T22:56:28.223Z,97205.17
2017-07-27T22:58:55.879Z,97209.48
2017-07-27T23:01:23.289Z,97210.13
2017-07-27T23:03:50.704Z,97210.37
2017-07-27T23:06:18.126Z,97210.09
2017-07-27T23:08:45.543Z,97214.46
2017-07-27T23:11:12.993Z,97210.94
2017-07-27T23:13:40.468Z,97227.41
2017-07-27T23:16:07.882Z,97237.48
2017-07-27T23:18:35.319Z,97244.98
2017-07-27T23:21:02.744Z,97241.08
2017-07-27T23:23:30.157Z,97239.44
2017-07-27T23:25:57.592Z,97224.65
2017-07-27T23:28:25.042Z,97230.34
2017-07-27T23:30:52.483Z,97237.23
2017-07-27T23:33:19.927Z,97241.01
2017-07-27T23:35:47.351Z,97240.17
2017-07-27T23:38:14.802Z,97233.25
2017-07-27T23:40:42.216Z,97230.20
2017-07-27T23:43:09.644Z,97237.97
2017-07-27T23:45:37.080Z,97241.47
2017-07-27T23:48:04.533Z,97240.07
2017-07-27T23:50:31.945Z,97246.30
2017-07-27T23:52:59.368Z,97251.50
2017-07-27T23:55:26.843Z,97251.31
2017-07-27T23:57:54.250Z,97250.59
